createdAt,value
2022-11-16T00:00:17.761Z,98.00
2022-11-16T00:00:48.554Z,98.00
2022-11-16T00:01:19.322Z,98.00
2022-11-16T00:01:50.131Z,97.90
2022-11-16T00:02:20.981Z,97.90
2022-11-16T00:02:51.765Z,97.90
2022-11-16T00:03:22.544Z,97.80
2022-11-16T00:03:53.345Z,97.60
2022-11-16T00:04:24.126Z,97.49
2022-11-16T00:04:54.926Z,97.49
2022-11-16T00:05:28.457Z,97.49
2022-11-16T00:05:56.396Z,97.49
2022-11-16T00:06:27.168Z,97.39
2022-11-16T00:06:57.962Z,97.28
2022-11-16T00:07:28.781Z,97.28
2022-11-16T00:07:59.551Z,97.49
2022-11-16T00:08:30.604Z,97.60
2022-11-16T00:09:01.469Z,97.69
2022-11-16T00:09:32.260Z,97.69
2022-11-16T00:10:03.074Z,97.69
2022-11-16T00:10:33.845Z,97.60
2022-11-16T00:11:04.616Z,97.49
2022-11-16T00:11:35.390Z,97.60
2022-11-16T00:12:06.164Z,97.49
2022-11-16T00:12:36.937Z,97.49
2022-11-16T00:13:07.727Z,97.49
2022-11-16T00:13:38.537Z,97.49
2022-11-16T00:14:09.318Z,97.49
2022-11-16T00:14:40.094Z,97.49
2022-11-16T00:15:10.867Z,97.60
2022-11-16T00:15:41.645Z,97.49
2022-11-16T00:16:12.418Z,97.43
2022-11-16T00:16:43.227Z,97.33
2022-11-16T00:17:13.986Z,97.43
2022-11-16T00:17:44.741Z,97.53
2022-11-16T00:18:15.537Z,97.64
2022-11-16T00:18:46.321Z,97.53
2022-11-16T00:19:17.131Z,97.64
2022-11-16T00:19:47.946Z,97.64
2022-11-16T00:20:18.703Z,97.74
2022-11-16T00:20:49.481Z,97.74
2022-11-16T00:21:20.258Z,97.74
2022-11-16T00:21:51.028Z,97.85
2022-11-16T00:22:21.810Z,97.85
2022-11-16T00:22:52.624Z,97.74
2022-11-16T00:23:23.388Z,97.64
2022-11-16T00:23:54.314Z,97.64
2022-11-16T00:24:25.120Z,97.74
2022-11-16T00:24:55.902Z,97.74
2022-11-16T00:25:26.678Z,97.74
2022-11-16T00:25:57.460Z,97.74
2022-11-16T00:26:28.250Z,97.74
2022-11-16T00:26:59.043Z,97.74
2022-11-16T00:27:29.788Z,97.74
2022-11-16T00:28:00.600Z,97.85
2022-11-16T00:28:31.816Z,97.85
2022-11-16T00:29:02.859Z,97.85
2022-11-16T00:29:33.659Z,97.85
2022-11-16T00:30:04.452Z,97.80
2022-11-16T00:30:35.240Z,97.85
2022-11-16T00:31:06.031Z,97.90
2022-11-16T00:31:36.812Z,97.80
2022-11-16T00:32:07.580Z,97.69
2022-11-16T00:32:38.360Z,97.69
2022-11-16T00:33:09.139Z,97.80
2022-11-16T00:33:39.890Z,97.80
2022-11-16T00:34:10.695Z,97.60
2022-11-16T00:34:41.482Z,97.49
2022-11-16T00:35:12.271Z,97.39
2022-11-16T00:35:43.052Z,97.39
2022-11-16T00:36:13.910Z,97.49
2022-11-16T00:36:44.721Z,97.60
2022-11-16T00:37:15.511Z,97.69
2022-11-16T00:37:46.300Z,97.60
2022-11-16T00:38:17.073Z,97.69
2022-11-16T00:38:47.837Z,97.69
2022-11-16T00:39:18.621Z,97.90
2022-11-16T00:39:49.402Z,98.00
2022-11-16T00:40:20.163Z,97.90
2022-11-16T00:40:50.945Z,97.90
2022-11-16T00:41:21.725Z,97.90
2022-11-16T00:41:52.535Z,97.74
2022-11-16T00:42:23.333Z,97.74
2022-11-16T00:42:54.113Z,97.85
2022-11-16T00:43:24.888Z,97.85
2022-11-16T00:43:55.696Z,98.05
2022-11-16T00:44:26.475Z,98.05
2022-11-16T00:44:57.226Z,98.05
2022-11-16T00:45:28.010Z,97.85
2022-11-16T00:45:58.774Z,97.85
2022-11-16T00:46:29.549Z,97.90
2022-11-16T00:47:00.315Z,97.95
2022-11-16T00:47:31.086Z,97.80
2022-11-16T00:48:02.283Z,97.69
2022-11-16T00:48:33.397Z,97.69
2022-11-16T00:49:04.478Z,97.80
2022-11-16T00:49:35.256Z,97.60
2022-11-16T00:50:06.025Z,97.60
2022-11-16T00:50:36.804Z,97.69
2022-11-16T00:51:07.575Z,97.80
2022-11-16T00:51:38.354Z,97.90
2022-11-16T00:52:09.119Z,98.00
2022-11-16T00:52:39.903Z,97.90
2022-11-16T00:53:10.684Z,97.80
2022-11-16T00:53:41.465Z,97.69
2022-11-16T00:54:12.240Z,97.69
2022-11-16T00:54:43.002Z,97.69
2022-11-16T00:55:13.779Z,97.80
2022-11-16T00:55:44.563Z,97.90
2022-11-16T00:56:15.351Z,97.80
2022-11-16T00:56:46.114Z,97.80
2022-11-16T00:57:16.890Z,97.80
2022-11-16T00:57:47.670Z,97.69
2022-11-16T00:58:18.434Z,97.69
2022-11-16T00:58:49.216Z,97.49
2022-11-16T00:59:20.019Z,97.49
2022-11-16T00:59:50.808Z,97.49
2022-11-16T01:00:21.615Z,97.49
2022-11-16T01:00:52.415Z,97.49
2022-11-16T01:01:23.380Z,97.49
2022-11-16T01:01:54.262Z,97.49
2022-11-16T01:02:25.038Z,97.69
2022-11-16T01:02:55.825Z,97.80
2022-11-16T01:03:26.587Z,97.90
2022-11-16T01:03:57.356Z,97.90
2022-11-16T01:04:28.151Z,97.90
2022-11-16T01:04:58.927Z,97.90
2022-11-16T01:05:29.713Z,97.90
2022-11-16T01:06:00.499Z,97.80
2022-11-16T01:06:31.288Z,97.69
2022-11-16T01:07:02.129Z,97.49
2022-11-16T01:07:33.002Z,97.49
2022-11-16T01:08:03.868Z,97.49
2022-11-16T01:08:34.965Z,97.49
2022-11-16T01:09:05.858Z,97.60
2022-11-16T01:09:36.628Z,97.60
2022-11-16T01:10:07.417Z,97.39
2022-11-16T01:10:38.188Z,97.39
2022-11-16T01:11:08.967Z,97.49
2022-11-16T01:11:39.726Z,97.49
2022-11-16T01:12:10.479Z,97.60
2022-11-16T01:12:41.281Z,97.49
2022-11-16T01:13:12.064Z,97.60
2022-11-16T01:13:42.891Z,97.60
2022-11-16T01:14:13.669Z,97.69
2022-11-16T01:14:44.444Z,97.60
2022-11-16T01:15:15.211Z,97.60
2022-11-16T01:15:45.983Z,97.60
2022-11-16T01:16:16.751Z,97.69
2022-11-16T01:16:47.531Z,97.69
2022-11-16T01:17:18.310Z,97.69
2022-11-16T01:17:49.081Z,97.60
2022-11-16T01:18:19.837Z,97.49
2022-11-16T01:18:50.616Z,97.49
2022-11-16T01:19:21.409Z,97.49
2022-11-16T01:19:52.205Z,97.49
2022-11-16T01:20:22.970Z,97.39
2022-11-16T01:20:53.763Z,97.49
2022-11-16T01:21:24.513Z,97.49
2022-11-16T01:21:55.299Z,97.49
2022-11-16T01:22:26.062Z,97.39
2022-11-16T01:22:56.821Z,97.49
2022-11-16T01:23:27.612Z,97.60
2022-11-16T01:23:58.398Z,97.60
2022-11-16T01:24:29.190Z,97.60
2022-11-16T01:24:59.972Z,97.28
2022-11-16T01:25:30.752Z,97.18
2022-11-16T01:26:01.559Z,97.28
2022-11-16T01:26:32.344Z,97.49
2022-11-16T01:27:03.103Z,97.39
2022-11-16T01:27:33.887Z,97.39
2022-11-16T01:28:04.664Z,97.28
2022-11-16T01:28:35.898Z,97.18
2022-11-16T01:29:07.003Z,97.28
2022-11-16T01:29:37.804Z,97.28
2022-11-16T01:30:08.593Z,97.18
2022-11-16T01:30:39.366Z,97.08
2022-11-16T01:31:10.173Z,96.97
2022-11-16T01:31:40.946Z,96.97
2022-11-16T01:32:11.731Z,97.08
2022-11-16T01:32:42.482Z,97.28
2022-11-16T01:33:13.252Z,97.18
2022-11-16T01:33:44.028Z,97.18
2022-11-16T01:34:14.821Z,97.08
2022-11-16T01:34:45.582Z,97.18
2022-11-16T01:35:16.355Z,97.08
2022-11-16T01:35:47.139Z,97.08
2022-11-16T01:36:17.913Z,96.97
2022-11-16T01:36:48.719Z,97.08
2022-11-16T01:37:19.483Z,97.08
2022-11-16T01:37:50.244Z,97.08
2022-11-16T01:38:22.361Z,97.08
2022-11-16T01:38:51.625Z,97.18
2022-11-16T01:39:22.433Z,97.08
2022-11-16T01:39:53.193Z,97.08
2022-11-16T01:40:23.974Z,97.08
2022-11-16T01:40:54.749Z,97.08
2022-11-16T01:41:25.514Z,96.97
2022-11-16T01:41:56.320Z,96.97
2022-11-16T01:42:27.069Z,96.77
2022-11-16T01:42:57.894Z,96.36
2022-11-16T01:43:28.696Z,96.46
2022-11-16T01:43:59.476Z,96.56
2022-11-16T01:44:30.301Z,96.67
2022-11-16T01:45:01.072Z,96.67
2022-11-16T01:45:31.851Z,96.56
2022-11-16T01:46:02.626Z,96.56
2022-11-16T01:46:33.432Z,96.25
2022-11-16T01:47:04.186Z,96.36
2022-11-16T01:47:34.957Z,96.36
2022-11-16T01:48:05.755Z,96.36
2022-11-16T01:48:36.870Z,96.46
2022-11-16T01:49:07.869Z,96.46
2022-11-16T01:49:38.649Z,96.46
2022-11-16T01:50:09.425Z,96.25
2022-11-16T01:50:40.203Z,96.36
2022-11-16T01:51:10.974Z,96.15
2022-11-16T01:51:41.735Z,96.25
2022-11-16T01:52:12.536Z,96.05
2022-11-16T01:52:43.306Z,95.74
2022-11-16T01:53:14.058Z,95.74
2022-11-16T01:53:44.844Z,95.53
2022-11-16T01:54:15.617Z,95.64
2022-11-16T01:54:46.443Z,95.84
2022-11-16T01:55:17.231Z,95.84
2022-11-16T01:55:48.010Z,95.84
2022-11-16T01:56:18.779Z,95.84
2022-11-16T01:56:49.579Z,95.84
2022-11-16T01:57:20.348Z,95.74
2022-11-16T01:57:51.119Z,95.53
2022-11-16T01:58:21.866Z,95.64
2022-11-16T01:58:52.652Z,95.64
2022-11-16T01:59:23.450Z,95.12
2022-11-16T01:59:54.247Z,95.12
2022-11-16T02:00:25.017Z,95.12
2022-11-16T02:00:55.825Z,95.43
2022-11-16T02:01:26.618Z,95.53
2022-11-16T02:01:57.438Z,95.33
2022-11-16T02:02:28.213Z,95.43
2022-11-16T02:02:58.997Z,95.53
2022-11-16T02:03:29.779Z,95.53
2022-11-16T02:04:00.569Z,95.43
2022-11-16T02:04:31.379Z,95.12
2022-11-16T02:05:02.156Z,94.76
2022-11-16T02:05:32.939Z,94.76
2022-11-16T02:06:03.727Z,95.02
2022-11-16T02:06:34.489Z,94.96
2022-11-16T02:07:05.330Z,94.85
2022-11-16T02:07:36.159Z,94.96
2022-11-16T02:08:06.933Z,95.17
2022-11-16T02:08:37.714Z,95.17
2022-11-16T02:09:08.496Z,95.27
2022-11-16T02:09:39.270Z,94.96
2022-11-16T02:10:10.062Z,95.06
2022-11-16T02:10:40.828Z,95.27
2022-11-16T02:11:11.600Z,95.48
2022-11-16T02:11:42.392Z,95.17
2022-11-16T02:12:13.148Z,94.85
2022-11-16T02:12:43.929Z,95.06
2022-11-16T02:13:14.711Z,95.17
2022-11-16T02:13:45.470Z,95.06
2022-11-16T02:14:16.250Z,94.96
2022-11-16T02:14:47.063Z,94.96
2022-11-16T02:15:17.835Z,94.96
2022-11-16T02:15:48.600Z,95.17
2022-11-16T02:16:19.382Z,95.27
2022-11-16T02:16:50.140Z,95.37
2022-11-16T02:17:20.941Z,95.48
2022-11-16T02:17:51.727Z,95.17
2022-11-16T02:18:22.513Z,95.27
2022-11-16T02:18:53.281Z,95.27
2022-11-16T02:19:24.051Z,94.85
2022-11-16T02:19:54.832Z,94.76
2022-11-16T02:20:25.599Z,94.96
2022-11-16T02:20:56.376Z,95.17
2022-11-16T02:21:27.132Z,95.06
2022-11-16T02:21:57.903Z,95.17
2022-11-16T02:22:28.702Z,95.06
2022-11-16T02:22:59.477Z,95.06
2022-11-16T02:23:30.253Z,95.17
2022-11-16T02:24:01.044Z,94.96
2022-11-16T02:24:31.815Z,94.96
2022-11-16T02:25:02.604Z,94.96
2022-11-16T02:25:33.414Z,94.85
2022-11-16T02:26:04.183Z,94.96
2022-11-16T02:26:34.996Z,94.76
2022-11-16T02:27:05.765Z,94.76
2022-11-16T02:27:36.544Z,94.85
2022-11-16T02:28:07.308Z,94.65
2022-11-16T02:28:38.085Z,94.76
2022-11-16T02:29:08.838Z,94.96
2022-11-16T02:29:39.634Z,94.65
2022-11-16T02:30:10.397Z,94.76
2022-11-16T02:30:41.164Z,94.76
2022-11-16T02:31:11.965Z,95.06
2022-11-16T02:31:42.761Z,95.06
2022-11-16T02:32:13.524Z,95.06
2022-11-16T02:32:44.311Z,94.96
2022-11-16T02:33:15.095Z,95.06
2022-11-16T02:33:45.866Z,95.06
2022-11-16T02:34:16.679Z,95.17
2022-11-16T02:34:47.456Z,95.27
2022-11-16T02:35:18.224Z,95.17
2022-11-16T02:35:49.028Z,94.96
2022-11-16T02:36:19.814Z,95.17
2022-11-16T02:36:50.565Z,95.37
2022-11-16T02:37:21.342Z,95.37
2022-11-16T02:37:52.111Z,95.48
2022-11-16T02:38:22.869Z,95.37
2022-11-16T02:38:53.653Z,95.48
2022-11-16T02:39:24.406Z,95.27
2022-11-16T02:39:55.202Z,95.17
2022-11-16T02:40:25.934Z,95.48
2022-11-16T02:40:56.694Z,95.37
2022-11-16T02:41:27.475Z,95.48
2022-11-16T02:41:58.244Z,95.27
2022-11-16T02:42:29.007Z,95.48
2022-11-16T02:42:59.778Z,95.58
2022-11-16T02:43:30.537Z,95.37
2022-11-16T02:44:01.314Z,95.06
2022-11-16T02:44:32.063Z,94.85
2022-11-16T02:45:02.828Z,94.85
2022-11-16T02:45:33.608Z,95.17
2022-11-16T02:46:04.396Z,95.37
2022-11-16T02:46:35.149Z,95.48
2022-11-16T02:47:05.928Z,95.17
2022-11-16T02:47:36.707Z,94.85
2022-11-16T02:48:07.477Z,94.85
2022-11-16T02:48:38.246Z,94.85
2022-11-16T02:49:09.010Z,94.76
2022-11-16T02:49:39.788Z,94.85
2022-11-16T02:50:10.587Z,94.96
2022-11-16T02:50:41.359Z,94.65
2022-11-16T02:51:12.131Z,94.85
2022-11-16T02:51:42.905Z,94.96
2022-11-16T02:52:13.659Z,94.96
2022-11-16T02:52:44.426Z,94.85
2022-11-16T02:53:15.192Z,94.76
2022-11-16T02:53:45.942Z,94.85
2022-11-16T02:54:16.729Z,95.06
2022-11-16T02:54:47.530Z,95.17
2022-11-16T02:55:18.318Z,95.06
2022-11-16T02:55:49.107Z,94.96
2022-11-16T02:57:17.818Z,95.06
2022-11-16T02:57:48.583Z,95.17
2022-11-16T02:58:19.335Z,95.17
2022-11-16T02:58:50.140Z,95.17
2022-11-16T02:59:20.884Z,95.17
2022-11-16T02:59:51.665Z,95.37
2022-11-16T03:00:22.424Z,95.48
2022-11-16T03:00:53.211Z,95.27
2022-11-16T03:01:23.996Z,95.17
2022-11-16T03:01:54.787Z,95.17
2022-11-16T03:02:25.559Z,95.27
2022-11-16T03:02:56.307Z,95.17
2022-11-16T03:03:27.065Z,95.17
2022-11-16T03:03:57.835Z,95.17
2022-11-16T03:04:28.586Z,95.27
2022-11-16T03:04:59.347Z,95.17
2022-11-16T03:05:30.108Z,95.27
2022-11-16T03:06:00.918Z,95.37
2022-11-16T03:06:31.678Z,95.58
2022-11-16T03:07:02.548Z,95.52
2022-11-16T03:07:33.383Z,95.52
2022-11-16T03:08:04.168Z,95.52
2022-11-16T03:08:35.264Z,95.58
2022-11-16T03:09:06.229Z,95.62
2022-11-16T03:09:36.995Z,95.42
2022-11-16T03:10:07.752Z,95.31
2022-11-16T03:10:38.497Z,95.31
2022-11-16T03:11:09.252Z,95.42
2022-11-16T03:11:40.049Z,95.27
2022-11-16T03:12:10.809Z,95.27
2022-11-16T03:12:41.566Z,95.37
2022-11-16T03:13:12.338Z,95.48
2022-11-16T03:13:43.106Z,95.68
2022-11-16T03:14:13.870Z,95.58
2022-11-16T03:14:44.628Z,95.37
2022-11-16T03:15:15.389Z,95.37
2022-11-16T03:15:46.144Z,95.48
2022-11-16T03:16:16.920Z,95.37
2022-11-16T03:16:47.682Z,95.37
2022-11-16T03:17:18.449Z,95.37
2022-11-16T03:17:49.219Z,95.48
2022-11-16T03:18:19.982Z,95.58
2022-11-16T03:18:50.742Z,95.48
2022-11-16T03:19:21.508Z,95.58
2022-11-16T03:19:52.256Z,95.48
2022-11-16T03:20:23.018Z,95.48
2022-11-16T03:20:53.769Z,95.37
2022-11-16T03:21:24.510Z,95.27
2022-11-16T03:21:55.288Z,95.48
2022-11-16T03:22:26.049Z,95.48
2022-11-16T03:22:56.838Z,95.68
2022-11-16T03:23:27.614Z,95.58
2022-11-16T03:23:58.389Z,95.21
2022-11-16T03:24:29.133Z,95.21
2022-11-16T03:24:59.889Z,95.21
2022-11-16T03:25:30.661Z,95.10
2022-11-16T03:26:01.420Z,95.17
2022-11-16T03:26:32.181Z,95.27
2022-11-16T03:27:02.945Z,95.21
2022-11-16T03:27:33.701Z,95.27
2022-11-16T03:28:04.462Z,95.37
2022-11-16T03:28:35.528Z,95.48
2022-11-16T03:29:06.498Z,95.48
2022-11-16T03:29:37.262Z,95.48
2022-11-16T03:30:08.014Z,95.37
2022-11-16T03:30:38.781Z,95.27
2022-11-16T03:31:09.550Z,95.21
2022-11-16T03:31:40.324Z,95.31
2022-11-16T03:32:11.090Z,95.10
2022-11-16T03:32:41.862Z,95.10
2022-11-16T03:33:12.594Z,95.31
2022-11-16T03:33:43.356Z,95.31
2022-11-16T03:34:14.123Z,95.42
2022-11-16T03:34:44.888Z,95.42
2022-11-16T03:35:15.646Z,95.52
2022-11-16T03:35:46.393Z,95.62
2022-11-16T03:36:17.145Z,95.31
2022-11-16T03:36:47.904Z,95.62
2022-11-16T03:37:18.682Z,95.73
2022-11-16T03:37:49.455Z,95.62
2022-11-16T03:38:20.223Z,95.42
2022-11-16T03:38:50.983Z,95.62
2022-11-16T03:39:21.754Z,95.52
2022-11-16T03:39:52.511Z,95.52
2022-11-16T03:40:23.264Z,95.31
2022-11-16T03:40:54.027Z,95.21
2022-11-16T03:41:24.798Z,95.31
2022-11-16T03:41:55.580Z,95.27
2022-11-16T03:42:26.317Z,95.31
2022-11-16T03:42:57.075Z,95.42
2022-11-16T03:43:27.825Z,95.42
2022-11-16T03:43:58.574Z,95.42
2022-11-16T03:44:29.325Z,95.48
2022-11-16T03:45:00.082Z,95.37
2022-11-16T03:45:30.843Z,95.21
2022-11-16T03:46:01.606Z,95.27
2022-11-16T03:46:32.357Z,95.17
2022-11-16T03:47:03.133Z,95.17
2022-11-16T03:47:33.877Z,95.17
2022-11-16T03:48:04.629Z,95.37
2022-11-16T03:48:35.780Z,95.48
2022-11-16T03:49:06.796Z,95.58
2022-11-16T03:49:37.546Z,95.68
2022-11-16T03:50:08.327Z,95.68
2022-11-16T03:50:39.086Z,95.48
2022-11-16T03:51:09.878Z,95.58
2022-11-16T03:51:40.625Z,95.68
2022-11-16T03:52:11.394Z,95.58
2022-11-16T03:52:42.149Z,95.37
2022-11-16T03:53:12.902Z,95.17
2022-11-16T03:53:43.674Z,95.37
2022-11-16T03:54:14.437Z,95.37
2022-11-16T03:54:45.186Z,95.48
2022-11-16T03:55:15.957Z,95.68
2022-11-16T03:55:49.768Z,95.78
2022-11-16T03:56:17.810Z,95.68
2022-11-16T03:56:48.563Z,95.37
2022-11-16T03:57:19.349Z,95.27
2022-11-16T03:57:50.144Z,95.37
2022-11-16T03:58:20.918Z,95.58
2022-11-16T03:58:51.667Z,95.68
2022-11-16T03:59:22.429Z,95.68
2022-11-16T03:59:53.189Z,95.58
2022-11-16T04:00:23.961Z,95.48
2022-11-16T04:00:54.764Z,95.37
2022-11-16T04:01:25.587Z,95.48
2022-11-16T04:01:56.330Z,95.68
2022-11-16T04:02:27.109Z,95.58
2022-11-16T04:02:57.907Z,95.58
2022-11-16T04:03:28.659Z,95.58
2022-11-16T04:03:59.620Z,95.68
2022-11-16T04:04:30.377Z,95.58
2022-11-16T04:05:01.139Z,95.62
2022-11-16T04:05:31.888Z,95.52
2022-11-16T04:06:02.625Z,95.62
2022-11-16T04:06:33.398Z,95.83
2022-11-16T04:07:04.240Z,95.73
2022-11-16T04:07:35.091Z,95.62
2022-11-16T04:08:05.860Z,95.83
2022-11-16T04:08:36.911Z,95.93
2022-11-16T04:09:07.751Z,95.83
2022-11-16T04:09:38.501Z,95.83
2022-11-16T04:10:09.259Z,95.93
2022-11-16T04:10:40.021Z,95.93
2022-11-16T04:11:10.797Z,95.99
2022-11-16T04:11:41.559Z,96.03
2022-11-16T04:12:12.309Z,96.24
2022-11-16T04:12:43.096Z,96.34
2022-11-16T04:13:13.850Z,96.30
2022-11-16T04:13:44.619Z,96.14
2022-11-16T04:14:15.388Z,95.93
2022-11-16T04:14:46.159Z,95.78
2022-11-16T04:15:16.911Z,95.89
2022-11-16T04:15:47.680Z,96.03
2022-11-16T04:16:18.437Z,96.09
2022-11-16T04:16:49.199Z,96.20
2022-11-16T04:17:19.950Z,96.20
2022-11-16T04:17:50.718Z,96.30
2022-11-16T04:18:21.490Z,96.30
2022-11-16T04:18:52.241Z,96.30
2022-11-16T04:19:23.001Z,95.89
2022-11-16T04:19:57.978Z,95.78
2022-11-16T04:20:26.070Z,95.58
2022-11-16T04:20:56.832Z,95.73
2022-11-16T04:21:27.603Z,95.83
2022-11-16T04:21:58.373Z,95.83
2022-11-16T04:22:29.232Z,95.93
2022-11-16T04:23:00.023Z,95.78
2022-11-16T04:23:30.796Z,95.89
2022-11-16T04:24:01.542Z,95.78
2022-11-16T04:24:32.290Z,95.78
2022-11-16T04:25:03.062Z,95.68
2022-11-16T04:25:33.821Z,95.68
2022-11-16T04:26:04.573Z,95.68
2022-11-16T04:26:35.322Z,95.73
2022-11-16T04:27:06.110Z,95.78
2022-11-16T04:27:36.863Z,95.78
2022-11-16T04:28:07.637Z,95.89
2022-11-16T04:28:38.608Z,95.83
2022-11-16T04:29:09.386Z,95.73
2022-11-16T04:29:40.124Z,95.83
2022-11-16T04:30:10.902Z,95.93
2022-11-16T04:30:41.661Z,95.93
2022-11-16T04:31:12.414Z,95.83
2022-11-16T04:31:43.157Z,95.83
2022-11-16T04:32:13.905Z,96.03
2022-11-16T04:32:44.663Z,95.89
2022-11-16T04:33:15.434Z,95.78
2022-11-16T04:33:46.187Z,95.83
2022-11-16T04:34:16.947Z,95.93
2022-11-16T04:34:47.712Z,96.03
2022-11-16T04:35:18.465Z,96.14
2022-11-16T04:35:49.205Z,96.20
2022-11-16T04:36:20.790Z,96.14
2022-11-16T04:36:51.670Z,96.03
2022-11-16T04:37:22.439Z,96.03
2022-11-16T04:37:53.205Z,95.93
2022-11-16T04:38:23.984Z,95.93
2022-11-16T04:38:54.748Z,96.09
2022-11-16T04:39:25.515Z,96.03
2022-11-16T04:39:56.272Z,95.89
2022-11-16T04:40:27.026Z,95.99
2022-11-16T04:40:57.764Z,96.09
2022-11-16T04:41:28.515Z,96.09
2022-11-16T04:41:59.284Z,96.09
2022-11-16T04:42:30.037Z,96.09
2022-11-16T04:43:00.793Z,96.20
2022-11-16T04:43:31.558Z,95.89
2022-11-16T04:44:02.317Z,95.78
2022-11-16T04:44:33.068Z,95.68
2022-11-16T04:45:03.833Z,95.89
2022-11-16T04:45:34.608Z,95.89
2022-11-16T04:46:05.370Z,95.78
2022-11-16T04:46:36.127Z,95.89
2022-11-16T04:47:06.888Z,95.99
2022-11-16T04:47:37.647Z,95.89
2022-11-16T04:48:08.414Z,95.78
2022-11-16T04:48:39.168Z,95.68
2022-11-16T04:49:09.936Z,95.58
2022-11-16T04:49:40.696Z,95.37
2022-11-16T04:50:11.467Z,95.37
2022-11-16T04:50:42.228Z,95.68
2022-11-16T04:51:12.984Z,95.58
2022-11-16T04:51:43.745Z,95.48
2022-11-16T04:52:14.498Z,95.48
2022-11-16T04:52:45.257Z,95.68
2022-11-16T04:53:16.029Z,95.68
2022-11-16T04:53:46.785Z,95.58
2022-11-16T04:54:17.532Z,95.68
2022-11-16T04:54:48.289Z,95.68
2022-11-16T04:55:19.039Z,95.68
2022-11-16T04:55:49.819Z,95.58
2022-11-16T04:56:20.584Z,95.78
2022-11-16T04:56:51.331Z,95.89
2022-11-16T04:57:22.086Z,95.68
2022-11-16T04:57:52.842Z,95.58
2022-11-16T04:58:23.601Z,95.68
2022-11-16T04:58:54.360Z,95.58
2022-11-16T04:59:25.109Z,95.48
2022-11-16T04:59:55.871Z,95.58
2022-11-16T05:00:26.632Z,95.68
2022-11-16T05:00:57.443Z,95.68
2022-11-16T05:01:28.240Z,95.68
2022-11-16T05:01:59.040Z,95.68
2022-11-16T05:02:29.800Z,95.58
2022-11-16T05:03:01.769Z,95.68
2022-11-16T05:03:32.760Z,95.78
2022-11-16T05:04:03.533Z,95.68
2022-11-16T05:04:34.301Z,95.68
2022-11-16T05:05:05.060Z,95.58
2022-11-16T05:05:35.815Z,95.68
2022-11-16T05:06:06.568Z,95.78
2022-11-16T05:06:37.317Z,95.78
2022-11-16T05:07:08.139Z,95.48
2022-11-16T05:07:38.902Z,95.58
2022-11-16T05:08:09.652Z,95.73
2022-11-16T05:08:40.432Z,95.83
2022-11-16T05:09:11.172Z,95.73
2022-11-16T05:09:41.942Z,95.83
2022-11-16T05:10:12.691Z,95.83
2022-11-16T05:10:43.452Z,96.03
2022-11-16T05:11:14.214Z,96.03
2022-11-16T05:11:44.971Z,95.93
2022-11-16T05:12:15.745Z,95.93
2022-11-16T05:12:46.503Z,96.03
2022-11-16T05:13:17.263Z,96.14
2022-11-16T05:13:48.025Z,95.93
2022-11-16T05:14:18.773Z,95.93
2022-11-16T05:14:49.527Z,95.93
2022-11-16T05:15:20.303Z,95.83
2022-11-16T05:15:51.057Z,95.83
2022-11-16T05:16:21.811Z,96.03
2022-11-16T05:16:52.565Z,95.93
2022-11-16T05:17:23.313Z,95.83
2022-11-16T05:17:54.076Z,95.83
2022-11-16T05:18:24.824Z,95.93
2022-11-16T05:18:55.599Z,96.14
2022-11-16T05:19:26.356Z,96.14
2022-11-16T05:19:57.114Z,95.93
2022-11-16T05:20:27.864Z,95.93
2022-11-16T05:20:58.615Z,95.93
2022-11-16T05:21:29.365Z,96.14
2022-11-16T05:22:00.129Z,96.24
2022-11-16T05:22:30.875Z,96.34
2022-11-16T05:23:01.645Z,96.24
2022-11-16T05:23:32.419Z,96.34
2022-11-16T05:24:03.186Z,96.45
2022-11-16T05:24:33.945Z,96.34
2022-11-16T05:25:04.732Z,96.34
2022-11-16T05:25:37.129Z,96.14
2022-11-16T05:26:08.021Z,96.03
2022-11-16T05:26:38.794Z,96.03
2022-11-16T05:27:09.547Z,96.14
2022-11-16T05:27:40.310Z,96.14
2022-11-16T05:28:11.056Z,96.24
2022-11-16T05:28:41.819Z,96.34
2022-11-16T05:29:12.577Z,96.45
2022-11-16T05:29:43.326Z,96.34
2022-11-16T05:30:14.106Z,96.34
2022-11-16T05:30:44.868Z,96.34
2022-11-16T05:31:15.618Z,96.24
2022-11-16T05:31:46.380Z,96.34
2022-11-16T05:32:17.143Z,96.45
2022-11-16T05:32:47.896Z,96.34
2022-11-16T05:33:18.688Z,96.55
2022-11-16T05:33:49.469Z,96.66
2022-11-16T05:34:20.237Z,96.66
2022-11-16T05:34:50.981Z,96.55
2022-11-16T05:35:21.762Z,96.45
2022-11-16T05:35:52.523Z,96.34
2022-11-16T05:36:23.257Z,96.45
2022-11-16T05:36:54.189Z,96.45
2022-11-16T05:37:24.947Z,96.45
2022-11-16T05:37:55.698Z,96.75
2022-11-16T05:38:26.458Z,96.75
2022-11-16T05:38:57.240Z,96.86
2022-11-16T05:39:28.000Z,96.75
2022-11-16T05:39:58.759Z,96.75
2022-11-16T05:40:29.520Z,96.96
2022-11-16T05:41:01.079Z,97.06
2022-11-16T05:41:31.849Z,96.96
2022-11-16T05:42:02.608Z,97.06
2022-11-16T05:42:33.355Z,97.06
2022-11-16T05:43:04.110Z,96.96
2022-11-16T05:43:34.870Z,96.96
2022-11-16T05:44:05.650Z,96.75
2022-11-16T05:44:36.415Z,96.75
2022-11-16T05:45:07.180Z,96.86
2022-11-16T05:45:37.946Z,96.86
2022-11-16T05:46:08.701Z,96.75
2022-11-16T05:46:39.469Z,96.55
2022-11-16T05:47:10.230Z,96.66
2022-11-16T05:47:40.989Z,96.55
2022-11-16T05:48:11.741Z,96.66
2022-11-16T05:48:42.498Z,96.66
2022-11-16T05:49:13.261Z,96.66
2022-11-16T05:49:44.012Z,96.66
2022-11-16T05:50:14.770Z,96.66
2022-11-16T05:50:45.532Z,96.66
2022-11-16T05:51:16.291Z,96.55
2022-11-16T05:51:47.056Z,96.55
2022-11-16T05:52:17.822Z,96.66
2022-11-16T05:52:48.641Z,96.55
2022-11-16T05:53:19.406Z,96.66
2022-11-16T05:53:50.166Z,96.75
2022-11-16T05:54:20.942Z,96.86
2022-11-16T05:54:51.710Z,96.75
2022-11-16T05:55:22.451Z,96.86
2022-11-16T05:55:53.213Z,96.96
2022-11-16T05:56:24.045Z,97.17
2022-11-16T05:56:54.832Z,97.27
2022-11-16T05:57:25.593Z,97.27
2022-11-16T05:57:56.346Z,97.21
2022-11-16T05:58:27.093Z,97.21
2022-11-16T05:58:57.862Z,97.21
2022-11-16T05:59:28.661Z,97.31
2022-11-16T05:59:59.434Z,97.42
2022-11-16T06:00:30.184Z,97.31
2022-11-16T06:01:00.975Z,97.42
2022-11-16T06:01:31.723Z,97.63
2022-11-16T06:02:02.492Z,97.73
2022-11-16T06:02:33.251Z,97.83
2022-11-16T06:03:04.051Z,97.73
2022-11-16T06:03:34.954Z,97.63
2022-11-16T06:04:05.773Z,97.63
2022-11-16T06:04:36.533Z,97.63
2022-11-16T06:05:07.294Z,97.63
2022-11-16T06:05:40.711Z,97.63
2022-11-16T06:06:08.574Z,97.73
2022-11-16T06:06:39.333Z,97.78
2022-11-16T06:07:10.136Z,97.89
2022-11-16T06:07:41.164Z,98.03
2022-11-16T06:08:11.924Z,97.99
2022-11-16T06:08:42.692Z,97.78
2022-11-16T06:09:13.464Z,97.78
2022-11-16T06:09:44.212Z,97.78
2022-11-16T06:10:14.975Z,97.68
2022-11-16T06:10:45.753Z,97.78
2022-11-16T06:11:16.514Z,97.83
2022-11-16T06:11:47.256Z,97.78
2022-11-16T06:12:18.015Z,97.78
2022-11-16T06:12:48.774Z,97.99
2022-11-16T06:13:19.537Z,97.83
2022-11-16T06:13:50.335Z,97.94
2022-11-16T06:14:21.118Z,97.89
2022-11-16T06:14:51.897Z,98.03
2022-11-16T06:15:22.675Z,98.14
2022-11-16T06:15:53.433Z,98.14
2022-11-16T06:16:24.189Z,98.14
2022-11-16T06:16:54.937Z,98.24
2022-11-16T06:17:25.839Z,98.14
2022-11-16T06:17:56.576Z,98.14
2022-11-16T06:18:27.328Z,98.24
2022-11-16T06:18:58.077Z,98.24
2022-11-16T06:19:32.338Z,98.24
2022-11-16T06:20:00.411Z,98.14
2022-11-16T06:20:31.157Z,98.03
2022-11-16T06:21:01.906Z,98.24
2022-11-16T06:21:32.655Z,98.24
2022-11-16T06:22:03.407Z,98.35
2022-11-16T06:22:34.179Z,98.45
2022-11-16T06:23:04.918Z,98.55
2022-11-16T06:23:35.665Z,98.55
2022-11-16T06:24:06.410Z,98.55
2022-11-16T06:24:37.232Z,98.55
2022-11-16T06:25:07.998Z,98.45
2022-11-16T06:25:38.742Z,98.35
2022-11-16T06:26:09.507Z,98.24
2022-11-16T06:26:40.247Z,98.24
2022-11-16T06:27:10.987Z,98.35
2022-11-16T06:27:41.726Z,98.35
2022-11-16T06:28:12.465Z,98.45
2022-11-16T06:28:43.216Z,98.41
2022-11-16T06:29:13.966Z,98.41
2022-11-16T06:29:44.729Z,98.30
2022-11-16T06:30:15.467Z,98.35
2022-11-16T06:30:46.248Z,98.30
2022-11-16T06:31:17.000Z,98.30
2022-11-16T06:31:47.746Z,98.41
2022-11-16T06:32:18.477Z,98.41
2022-11-16T06:32:49.224Z,98.41
2022-11-16T06:33:19.975Z,98.41
2022-11-16T06:33:50.720Z,98.30
2022-11-16T06:34:21.452Z,98.30
2022-11-16T06:34:52.215Z,98.30
2022-11-16T06:35:22.955Z,98.30
2022-11-16T06:35:53.698Z,98.41
2022-11-16T06:36:24.438Z,98.41
2022-11-16T06:36:55.167Z,98.50
2022-11-16T06:37:25.903Z,98.41